Pahranagat National Wildlife Refuge, Nevada Weather observations

Data are for 10 minute period ending at time listed.
 Day   Time   Solar   Ave.   Ave.  Ave.  Vector  Max.   Baro.   Total    
  of    of     Rad.   Air    Rel.  Wind   Wind   Wind  Press.  Precip.   
Year   Day            Temp.  Hum.  Speed  Dir.   Gust                    
2016   (PST)  Kw/m2    F      %     mph   deg.    mph    mb.     in.     
-------------------------------------------------------------------------
 336   11:50   0.38   52.1    29    8.7   324    14.8   902.5    0.00 
 336   12:00   0.40   52.7    28    9.9   316    19.5   902.3    0.00 
 336   12:10   0.39   52.7    27    9.3   325    14.8   902.1    0.00 
 336   12:20   0.36   52.8    26    9.3   319    15.5   901.9    0.00 
 336   12:30   0.32   53.2    25    9.8   316    15.3   901.8    0.00 
 336   12:40   0.30   52.6    24   11.3   316    17.2   901.6    0.00 
 336   12:50   0.37   53.1    23   10.9   319    16.0   901.6    0.00 
 336   13:00   0.30   52.9    23   11.1   312    16.6   901.5    0.00 
 336   13:10   0.30   53.5    22    9.6   315    14.8   901.4    0.00 
 336   13:20   0.34   53.7    22    7.2   308    15.4   901.2    0.00 
 336   13:30   0.31   54.0    21    7.8   337    14.5   901.2    0.00 
 336   13:40   0.31   54.0    21    7.9   326    13.7   901.1    0.00 
 336   13:50   0.27   53.6    22    9.7   318    17.5   901.0    0.00 
 336   14:00   0.28   53.3    22    7.6   304    14.1   900.9    0.00 
 336   14:10   0.25   53.9    21    7.5   321    12.9   900.9    0.00 
 336   14:20   0.24   53.6    21    9.8   317    14.5   900.7    0.00 
 336   14:30   0.15   52.7    22    9.2   325    14.2   900.6    0.00 
 336   14:40   0.17   52.7    21    8.3   317    12.2   900.6    0.00 
 336   14:50   0.10   52.0    21    7.5   316    11.4   900.6    0.00 
 336   15:00   0.06   51.0    22    7.8   319    12.5   900.7    0.00 
 336   15:10   0.06   50.3    23    6.2   321    10.4   900.7    0.00 
 336   15:20   0.06   49.8    24    6.1   315    10.8   900.7    0.00 
 336   15:30   0.04   49.0    24    5.6   312     9.0   900.7    0.00 
 336   15:40   0.03   48.5    24    4.6   306     8.0   900.7    0.00 
 336   15:50   0.03   47.9    24    5.9   309     9.5   900.7    0.00 
 336   16:00   0.03   47.7    24    4.6   319     8.6   900.7    0.00 
 336   16:10   0.02   46.0    26    3.8   321     5.1   900.7    0.00 
 336   16:20   0.01   44.1    27    3.0   349     3.9   900.7    0.00 
 336   16:30   0.00   43.5    27    3.1   359     3.6   900.7    0.00 
 336   16:40   0.00   43.8    27    3.3    11     4.2   900.6    0.00 
 336   16:50   0.00   43.7    27    3.1    13     4.3   900.7    0.00 
 336   17:00   0.00   42.3    28    4.2   345     6.1   900.7    0.00 
 336   17:10   0.00   41.4    30    4.4   344     6.2   900.8    0.00 
 336   17:20   0.00   39.4    33    4.3   345     6.4   900.8    0.00 
 336   17:30   0.00   41.3    33    5.9   344     9.8   900.9    0.00 
 336   17:40   0.00   43.0    32    6.5   344     9.6   901.0    0.00 
 336   17:50   0.00   43.7    30    7.0   340     9.3   901.1    0.00 
 336   18:00   0.00   43.7    30    6.7   339    10.3   901.1    0.00 
 336   18:10   0.00   43.7    29    6.9   343     9.7   901.2    0.00 
 336   18:20   0.00   43.3    30    6.0   345    11.3   901.3    0.00 
 336   18:30   0.00   43.0    30    6.3   340    10.9   901.4    0.00 
 336   18:40   0.00   44.3    29    8.4   324    11.7   901.5    0.00 
 336   18:50   0.00   44.6    29    8.4   325    12.8   901.7    0.00 
 336   19:00   0.00   44.5    29    9.7   320    15.1   901.8    0.00 
 336   19:10   0.00   44.4    29   10.5   319    15.9   901.8    0.00 
 336   19:20   0.00   44.5    29   11.5   320    16.4   901.8    0.00 
 336   19:30   0.00   44.1    30   10.0   323    15.8   901.8    0.00 
 336   19:40   0.00   44.0    30   10.7   323    17.1   901.8    0.00 
 336   19:50   0.00   43.6    31    8.4   336    15.1   902.0    0.00 
 336   20:00   0.00   43.5    31    9.5   329    16.8   902.1    0.00 
 336   20:10   0.00   43.2    31    8.1   336    15.0   902.3    0.00 
 336   20:20   0.00   43.6    31   11.1   324    16.7   902.4    0.00 
 336   20:30   0.00   43.4    31   11.3   324    18.1   902.6    0.00 
 336   20:40   0.00   43.3    31   11.2   325    17.0   902.6    0.00 
 336   20:50   0.00   43.3    31   12.5   324    21.5   902.7    0.00 
 336   21:00   0.00   43.0    31   12.3   332    19.1   902.7    0.00 
 336   21:10   0.00   42.7    31   11.7   341    18.8   903.0    0.00 
 336   21:20   0.00   42.7    30   12.9   336    19.4   903.1    0.00 
 336   21:30   0.00   42.5    30   12.5   332    20.8   903.1    0.00 
 336   21:40   0.00   42.0    30   11.4   335    17.0   903.1    0.00 
 336   21:50   0.00   41.6    30   11.1   337    17.1   903.3    0.00 
 336   22:00   0.00   41.4    30   10.3   337    16.2   903.4    0.00 
 336   22:10   0.00   41.2    30   10.2   337    16.0   903.5    0.00 
 336   22:20   0.00   40.9    31    9.0   335    13.5   903.6    0.00 
 336   22:30   0.00   41.0    29   10.8   332    17.0   903.6    0.00 
 336   22:40   0.00   40.9    29   11.3   326    17.6   903.7    0.00 
 336   22:50   0.00   40.7    29   10.3   324    14.2   903.7    0.00 
 336   23:00   0.00   40.6    28   11.1   327    17.0   903.7    0.00 
 336   23:10   0.00   40.5    28   12.2   327    17.5   903.7    0.00 
 336   23:20   0.00   40.2    29   14.3   325    20.8   903.6    0.00 
 336   23:30   0.00   40.0    29   13.5   325    19.4   903.6    0.00 
 336   23:40   0.00   39.9    29   14.9   326    23.5   903.6    0.00 
 336   23:50   0.00   39.7    30   13.0   326    20.8   903.5    0.00 
 337    0:00   0.00   39.7    30   15.2   327    22.4   903.5    0.00 
 337    0:10   0.00   39.5    30   14.5   328    24.0   903.5    0.00 
 337    0:20   0.00   39.4    30   14.2   328    22.1   903.4    0.00 
 337    0:30   0.00   39.2    30   13.8   328    19.1   903.3    0.00 
 337    0:40   0.00   39.0    31   13.8   331    19.9   903.4    0.00 
 337    0:50   0.00   39.0    31   15.1   331    24.2   903.4    0.00 
 337    1:00   0.00   38.9    31   15.2   328    22.5   903.4    0.00 
 337    1:10   0.00   38.6    31   14.9   328    21.5   903.4    0.00 
 337    1:20   0.00   38.3    32   14.3   327    24.9   903.4    0.00 
 337    1:30   0.00   38.2    32   14.4   327    20.5   903.5    0.00 
 337    1:40   0.00   38.1    33   13.0   321    18.9   903.5    0.00 
 337    1:50   0.00   37.8    34   12.5   318    19.2   903.5    0.00 
 337    2:00   0.00   37.7    33   13.2   322    19.0   903.5    0.00 
 337    2:10   0.00   37.3    34   12.1   324    17.5   903.6    0.00 
 337    2:20   0.00   36.8    34   10.5   328    15.9   903.6    0.00 
 337    2:30   0.00   36.5    35   11.0   327    16.7   903.6    0.00 
 337    2:40   0.00   35.9    35    9.6   329    16.0   903.5    0.00 
 337    2:50   0.00   35.4    36    9.0   336    14.8   903.4    0.00 
 337    3:00   0.00   35.0    36    9.9   331    15.6   903.4    0.00 
 337    3:10   0.00   35.1    36   11.1   327    18.7   903.4    0.00 
 337    3:20   0.00   35.7    35   11.8   325    17.8   903.5    0.00 
 337    3:30   0.00   34.5    37    8.9   337    13.7   903.6    0.00 
 337    3:40   0.00   33.4    39    7.3   347    12.3   903.6    0.00 
 337    3:50   0.00   32.7    41    7.7   351    11.1   903.6    0.00 
 337    4:00   0.00   32.5    42    8.6   342    13.5   903.6    0.00 
 337    4:10   0.00   33.2    41    9.6   344    14.1   903.6    0.00 
 337    4:20   0.00   33.0    41    9.5   344    13.7   903.7    0.00 
 337    4:30   0.00   33.4    40   10.7   339    17.0   903.7    0.00 
 337    4:40   0.00   33.2    41    9.9   339    15.0   903.9    0.00 
 337    4:50   0.00   33.0    41   11.1   331    19.4   904.0    0.00 
 337    5:00   0.00   33.7    40   11.8   328    18.9   904.1    0.00 
 337    5:10   0.00   33.6    40   11.1   328    16.3   904.1    0.00 
 337    5:20   0.00   33.0    40    9.7   333    15.7   904.2    0.00 
 337    5:30   0.00   32.0    42    8.0   339    13.6   904.4    0.00 
 337    5:40   0.00   30.9    45    7.9   340    11.8   904.5    0.00 
 337    5:50   0.00   31.4    44    9.3   334    13.4   904.7    0.00 
 337    6:00   0.00   31.6    44    8.8   338    13.2   904.8    0.00 
 337    6:10   0.00   32.2    42    9.6   336    15.1   904.9    0.00 
 337    6:20   0.00   32.8    40   10.4   332    17.2   905.1    0.00 
 337    6:30   0.00   31.8    42    8.6   341    13.4   905.3    0.00 
 337    6:40   0.00   31.7    42    9.9   340    14.4   905.3    0.00 
 337    6:50   0.01   31.4    44    9.7   341    14.0   905.3    0.00 
 337    7:00   0.01   31.2    44    9.9   340    13.7   905.4    0.00 
 337    7:10   0.04   32.2    42   11.8   342    17.5   905.4    0.00 
 337    7:20   0.06   33.2    41   11.5   342    17.5   905.5    0.00 
 337    7:30   0.07   34.3    39   12.3   345    19.0   905.8    0.00 
 337    7:40   0.09   35.4    36   11.9   341    19.7   906.0    0.00 
 337    7:50   0.10   35.9    36   12.6   342    18.9   906.2    0.00 
 337    8:00   0.12   36.3    36   12.8   337    23.8   906.3    0.00 
 337    8:10   0.15   37.2    34   13.4   339    19.2   906.3    0.00 
 337    8:20   0.11   37.4    33   13.1   340    19.5   906.5    0.00 
 337    8:30   0.18   38.3    33   12.8   337    18.6   906.5    0.00 
 337    8:40   0.19   39.1    32   14.3   334    20.5   906.7    0.00 
 337    8:50   0.22   39.9    31   14.6   327    23.3   906.8    0.00 
 337    9:00   0.24   40.6    30   14.8   327    22.3   907.0    0.00 
 337    9:10   0.22   40.8    30   16.3   329    25.1   907.0    0.00 
 337    9:20   0.28   41.8    29   16.0   329    25.9   907.1    0.00 
 337    9:30   0.28   42.4    29   15.4   334    25.1   907.2    0.00 
 337    9:40   0.30   42.9    29   16.2   335    23.9   907.2    0.00 
 337    9:50   0.31   43.3    29   15.5   332    23.7   907.3    0.00 
 337   10:00   0.32   43.8    28   14.3   339    20.6   907.3    0.00 
 337   10:10   0.33   44.3    28   13.6   338    20.5   907.3    0.00 
 337   10:20   0.34   45.0    26   11.0   355    17.5   907.4    0.00 
 337   10:30   0.34   45.1    26   12.0   350    19.4   907.3    0.00 
 337   10:40   0.36   45.1    26   12.3   356    18.6   907.3    0.00 
 337   10:50   0.36   45.5    26   11.8   352    19.1   907.1    0.00 
 337   11:00   0.37   45.5    26   14.7     6    24.0   907.0    0.00 
 337   11:10   0.38   45.8    26   12.2     1    19.6   906.9    0.00 
 337   11:20   0.38   46.4    25   14.6   360    23.5   906.8    0.00 
 337   11:30   0.39   46.4    25   13.4   354    21.9   906.6    0.00 
 337   11:40   0.38   46.7    25   13.4    14    22.2   906.6    0.00 

Return to Pahranagat N. Wildlife Refuge graphs page.


Western Regional Climate Center,wrcc@dri.edu